Airfield :
LOGIN :

Register | Disclaimer

   EN    FR    IT 

 










Legend :    VFR   Marginal VFR   IFR   Intensive IFR   Very Intensive IFR
Visi :
Ceiling :
>= 8 km
>= 3000ft
5 to 8 km
1000 to 3000 ft
1500m to 5 km
500 to 1000 ft
800 to 1500m
200 to 500 ft
< 800m
< 200 ft
Symbols :   Thunderstorms  Fog  Heavy snow  Heavy precipitations  Wind > 20 kt
SIGMETs :     Misc.  Thunderstorms  Icing  Turbulence  Mountain Waves  Volcanic Ashes






- Airport Elevation : 2054 ft
- IATA code : RRS


ENRO - Røros

CURRENT METAR :
  • 070920Z 20012KT 170V250 9999 BKN026 09/03 Q0996

EXPIRED METARs :
  • 070850Z 17010KT 140V210 9999 BKN026 08/02 Q0995
  • 070820Z 16011KT 130V210 9999 BKN029 06/01 Q0996
  • 070750Z 16013KT 120V190 9999 BKN029 06/01 Q0997
  • 070720Z 15011KT 120V190 9999 BKN029 06/01 Q0997
  • 070650Z 17011KT 110V250 9999 FEW020 BKN030 06/00 Q0997

TAF TAF ENRO
Valid from the 07 at 09:00 until the 07 at 18:00 UTC


070800Z 0709/0718 19010KT 9999 FEW020 BKN030
TEMPO 0709/0718 20015G25KT SHRA FEW025CB BKN030



MET'MAP, your aeronautical weather chart ! - Copyright ORBIFLY December 2007 - Disclaimer

ORBIFLY MET'MAP TEAM :

Programming & Development : Alexandra Zaïnal
Original concept : Baudouin d'Aumeries
Technical & hardware support : Manuel Goepfert
Assistance : Marc-Olivier Méhu




SOURCES & CREDITS :

   NOAA